Time;durP1;ratioP1;P1;durP2;ratioP2;P2;SDS_P1;SDS_P2;PMS_P1;PMS_P2;Temp;Humidity;BMP_temperature;BMP_pressure;BME280_temperature;BME280_humidity;BME280_pressure;Samples;Min_cycle;Max_cycle;Signal;HPM_P1;HPM_P2
2023/06/18 00:01:40;;;;;;;20.30;11.75;;;;;;;;;;10354042;28;20511;-89
2023/06/18 00:06:41;;;;;;;19.33;13.45;;;;;;;;;;10330923;28;20182;-88
2023/06/18 00:11:42;;;;;;;16.85;12.50;;;;;;;;;;10337760;28;20216;-87
2023/06/18 00:16:43;;;;;;;17.98;13.00;;;;;;;;;;10336198;28;20371;-88
2023/06/18 00:21:44;;;;;;;17.60;13.60;;;;;;;;;;10328847;28;20394;-87
2023/06/18 00:26:45;;;;;;;15.65;12.00;;;;;;;;;;10337004;28;20037;-87
2023/06/18 00:31:46;;;;;;;17.50;13.00;;;;;;;;;;10335924;28;20042;-87
2023/06/18 00:36:50;;;;;;;17.65;12.43;;;;;;;;;;10341139;28;20385;-88
2023/06/18 00:41:51;;;;;;;15.60;11.68;;;;;;;;;;10354443;28;20481;-88
2023/06/18 00:46:56;;;;;;;18.02;12.77;;;;;;;;;;10353251;28;20085;-87
2023/06/18 00:51:58;;;;;;;17.38;11.70;;;;;;;;;;10352301;28;20901;-89
2023/06/18 00:56:59;;;;;;;17.17;12.45;;;;;;;;;;10333888;28;20034;-88
2023/06/18 01:02:01;;;;;;;16.55;11.32;;;;;;;;;;10331175;28;20073;-87
2023/06/18 01:07:02;;;;;;;17.55;12.65;;;;;;;;;;10343595;28;20046;-88
2023/06/18 01:12:03;;;;;;;20.02;14.13;;;;;;;;;;10342074;28;20556;-88
2023/06/18 01:17:06;;;;;;;16.70;12.50;;;;;;;;;;10321891;28;20474;-88
2023/06/18 01:22:11;;;;;;;17.48;12.80;;;;;;;;;;10324513;28;20030;-88
2023/06/18 01:27:12;;;;;;;20.93;14.03;;;;;;;;;;10335597;28;20025;-88
2023/06/18 01:32:21;;;;;;;19.55;14.10;;;;;;;;;;10360954;28;20035;-91
2023/06/18 01:37:35;;;;;;;16.75;12.50;;;;;;;;;;10338360;28;20032;-90
2023/06/18 01:42:38;;;;;;;18.50;13.35;;;;;;;;;;10335792;28;20038;-88
2023/06/18 01:47:39;;;;;;;18.73;13.45;;;;;;;;;;10327084;28;20026;-89
2023/06/18 01:52:42;;;;;;;18.90;13.02;;;;;;;;;;10327462;28;20065;-88
2023/06/18 01:57:43;;;;;;;20.30;14.32;;;;;;;;;;10340611;28;20474;-89
2023/06/18 02:02:44;;;;;;;23.02;15.07;;;;;;;;;;10329766;28;20147;-89
2023/06/18 02:07:45;;;;;;;22.65;14.68;;;;;;;;;;10335148;28;20054;-87
2023/06/18 02:12:46;;;;;;;21.17;15.02;;;;;;;;;;10334988;28;20046;-86
2023/06/18 02:17:47;;;;;;;27.17;17.95;;;;;;;;;;10353770;28;20026;-87
2023/06/18 02:22:49;;;;;;;24.08;17.65;;;;;;;;;;10338296;28;20095;-88
2023/06/18 02:27:54;;;;;;;26.25;16.92;;;;;;;;;;10348815;28;20034;-84
2023/06/18 02:32:55;;;;;;;22.30;15.48;;;;;;;;;;10330052;28;20086;-88
2023/06/18 02:37:56;;;;;;;26.90;18.33;;;;;;;;;;10348073;28;20533;-88
2023/06/18 02:42:58;;;;;;;26.95;18.15;;;;;;;;;;10349467;28;20038;-88
2023/06/18 02:47:59;;;;;;;24.40;16.60;;;;;;;;;;10344739;28;20287;-89
2023/06/18 02:53:00;;;;;;;24.50;16.95;;;;;;;;;;10325853;28;20042;-90
2023/06/18 02:58:02;;;;;;;28.08;17.92;;;;;;;;;;10327455;28;20038;-89
2023/06/18 03:03:03;;;;;;;27.17;17.10;;;;;;;;;;10326902;28;20045;-88
2023/06/18 03:08:06;;;;;;;30.85;19.27;;;;;;;;;;10328235;28;20042;-88
2023/06/18 03:13:07;;;;;;;28.77;19.30;;;;;;;;;;10341659;28;20034;-89
2023/06/18 03:18:08;;;;;;;27.17;18.98;;;;;;;;;;10329226;28;20038;-88
2023/06/18 03:23:09;;;;;;;31.65;21.35;;;;;;;;;;10328834;28;20564;-88
2023/06/18 03:28:10;;;;;;;30.58;21.75;;;;;;;;;;10333054;28;20053;-88
2023/06/18 03:33:11;;;;;;;28.63;20.13;;;;;;;;;;10319066;28;20046;-88
2023/06/18 03:38:12;;;;;;;29.75;20.15;;;;;;;;;;10316500;28;20058;-89
2023/06/18 03:43:13;;;;;;;28.73;20.73;;;;;;;;;;10329980;28;20031;-88
2023/06/18 03:48:14;;;;;;;31.00;21.73;;;;;;;;;;10340624;28;20033;-88
2023/06/18 03:53:15;;;;;;;27.65;19.17;;;;;;;;;;10327064;28;20081;-88
2023/06/18 03:58:18;;;;;;;26.77;18.52;;;;;;;;;;10326235;28;20044;-89
2023/06/18 04:03:19;;;;;;;28.02;19.77;;;;;;;;;;10325627;28;20514;-88
2023/06/18 04:08:20;;;;;;;28.17;20.85;;;;;;;;;;10335334;28;20057;-87
2023/06/18 04:13:22;;;;;;;25.42;18.85;;;;;;;;;;10318248;28;20065;-88
2023/06/18 04:18:25;;;;;;;31.25;22.10;;;;;;;;;;10335057;28;20057;-87
2023/06/18 04:23:27;;;;;;;32.13;23.15;;;;;;;;;;10319552;28;20070;-89
2023/06/18 04:28:28;;;;;;;31.23;23.15;;;;;;;;;;10323764;28;20061;-88
2023/06/18 04:33:29;;;;;;;31.13;21.08;;;;;;;;;;10324227;28;20038;-88
2023/06/18 04:38:30;;;;;;;34.00;25.42;;;;;;;;;;10316884;28;20034;-88
2023/06/18 04:43:31;;;;;;;30.95;21.17;;;;;;;;;;10323940;28;20121;-88
2023/06/18 04:48:34;;;;;;;27.25;19.48;;;;;;;;;;10313609;28;20041;-89
2023/06/18 04:53:35;;;;;;;26.20;18.55;;;;;;;;;;10321900;28;20125;-88
2023/06/18 04:58:39;;;;;;;24.13;18.45;;;;;;;;;;10321060;28;20046;-89
2023/06/18 05:03:40;;;;;;;24.55;18.27;;;;;;;;;;10320939;28;20073;-89
2023/06/18 05:08:41;;;;;;;22.55;16.13;;;;;;;;;;10322325;28;20498;-88
2023/06/18 05:13:42;;;;;;;20.83;15.40;;;;;;;;;;10321133;28;20061;-88
2023/06/18 05:18:43;;;;;;;21.52;16.23;;;;;;;;;;10321726;28;20034;-86
2023/06/18 05:23:45;;;;;;;19.90;15.65;;;;;;;;;;10313234;28;20027;-88
2023/06/18 05:28:46;;;;;;;23.05;15.98;;;;;;;;;;10312689;28;20045;-89
2023/06/18 05:33:47;;;;;;;21.52;15.70;;;;;;;;;;10330777;28;20069;-89
2023/06/18 05:38:48;;;;;;;19.02;14.15;;;;;;;;;;10324789;28;20041;-90
2023/06/18 05:43:49;;;;;;;17.38;12.40;;;;;;;;;;10347743;28;20760;-87
2023/06/18 05:48:50;;;;;;;15.30;11.23;;;;;;;;;;10344252;28;20034;-89
2023/06/18 05:53:51;;;;;;;16.13;12.23;;;;;;;;;;10350019;28;20038;-88
2023/06/18 05:58:53;;;;;;;14.60;11.13;;;;;;;;;;10324664;28;20038;-88
2023/06/18 06:03:54;;;;;;;15.30;10.75;;;;;;;;;;10322852;28;20038;-89
2023/06/18 06:08:55;;;;;;;12.90;10.02;;;;;;;;;;10296493;28;20047;-89
2023/06/18 06:13:58;;;;;;;10.48;8.63;;;;;;;;;;10271681;28;20093;-89
2023/06/18 06:18:59;;;;;;;11.32;8.63;;;;;;;;;;10265461;28;20039;-88
2023/06/18 06:24:01;;;;;;;14.10;9.93;;;;;;;;;;10270062;28;20082;-88
2023/06/18 06:29:02;;;;;;;12.40;9.15;;;;;;;;;;10261053;28;20486;-90
2023/06/18 06:34:03;;;;;;;11.98;8.60;;;;;;;;;;10278922;28;20035;-88
2023/06/18 06:39:04;;;;;;;11.98;9.60;;;;;;;;;;10278710;28;20030;-89
2023/06/18 06:44:05;;;;;;;10.80;8.90;;;;;;;;;;10281874;28;20039;-88
2023/06/18 06:49:07;;;;;;;12.98;7.95;;;;;;;;;;10281348;28;20363;-89
2023/06/18 06:54:09;;;;;;;12.10;8.40;;;;;;;;;;10268172;28;20042;-89
2023/06/18 06:59:10;;;;;;;10.43;7.88;;;;;;;;;;10283876;28;20027;-88
2023/06/18 07:04:11;;;;;;;9.43;6.93;;;;;;;;;;10284986;28;20026;-87
2023/06/18 07:09:12;;;;;;;8.85;6.50;;;;;;;;;;10306945;28;20050;-86
2023/06/18 07:14:14;;;;;;;8.52;6.47;;;;;;;;;;10326711;28;20042;-88
2023/06/18 07:19:15;;;;;;;7.68;5.68;;;;;;;;;;10324018;28;20405;-88
2023/06/18 07:24:16;;;;;;;6.82;5.78;;;;;;;;;;10325973;28;20036;-89
2023/06/18 07:29:17;;;;;;;5.80;5.10;;;;;;;;;;10318963;28;20393;-89
2023/06/18 07:34:18;;;;;;;6.03;5.30;;;;;;;;;;10321830;28;20065;-89
2023/06/18 07:39:19;;;;;;;6.05;4.40;;;;;;;;;;10334615;28;20744;-89
2023/06/18 07:44:20;;;;;;;7.28;5.22;;;;;;;;;;10324268;28;20027;-89
2023/06/18 07:49:21;;;;;;;10.20;5.18;;;;;;;;;;10332036;28;20029;-88
2023/06/18 07:54:22;;;;;;;7.53;5.30;;;;;;;;;;10324318;28;20482;-89
2023/06/18 07:59:23;;;;;;;6.28;4.70;;;;;;;;;;10325366;28;20038;-88
2023/06/18 08:04:24;;;;;;;6.75;5.65;;;;;;;;;;10323956;28;20031;-91
2023/06/18 08:09:25;;;;;;;6.55;5.53;;;;;;;;;;10318521;28;20050;-88
2023/06/18 08:14:28;;;;;;;6.97;6.10;;;;;;;;;;10323313;28;20092;-88
2023/06/18 08:19:29;;;;;;;10.93;7.68;;;;;;;;;;10321715;28;20123;-88
2023/06/18 08:24:30;;;;;;;7.50;6.22;;;;;;;;;;10323285;28;20108;-88
2023/06/18 08:29:31;;;;;;;7.20;6.40;;;;;;;;;;10322699;28;20453;-88
2023/06/18 08:34:32;;;;;;;7.63;5.55;;;;;;;;;;10320424;28;20030;-86
2023/06/18 08:39:33;;;;;;;9.60;7.55;;;;;;;;;;10339378;28;20486;-87
2023/06/18 08:44:34;;;;;;;11.88;8.82;;;;;;;;;;10324524;28;20045;-88
2023/06/18 08:49:36;;;;;;;9.75;7.10;;;;;;;;;;10320932;28;20025;-90
2023/06/18 08:54:38;;;;;;;7.07;6.38;;;;;;;;;;10320133;28;20041;-88
2023/06/18 08:59:41;;;;;;;8.98;6.05;;;;;;;;;;10320953;28;20427;-91
2023/06/18 09:04:42;;;;;;;6.28;5.40;;;;;;;;;;10322861;28;20498;-88
2023/06/18 09:09:43;;;;;;;7.85;6.47;;;;;;;;;;10321937;28;20059;-88
2023/06/18 09:14:46;;;;;;;9.55;8.50;;;;;;;;;;10311942;28;20034;-89
2023/06/18 09:19:47;;;;;;;11.30;8.02;;;;;;;;;;10322648;28;20433;-89
2023/06/18 09:24:56;;;;;;;7.28;6.25;;;;;;;;;;10330785;28;20618;-87
2023/06/18 09:29:57;;;;;;;6.78;5.45;;;;;;;;;;10321323;28;20077;-89
2023/06/18 09:35:11;;;;;;;9.05;7.22;;;;;;;;;;10327546;28;20027;-88
2023/06/18 09:40:27;;;;;;;7.82;7.00;;;;;;;;;;10320744;28;20081;-88
2023/06/18 09:45:28;;;;;;;8.07;6.70;;;;;;;;;;10317553;28;20026;-89
2023/06/18 09:50:29;;;;;;;8.13;6.15;;;;;;;;;;10309494;28;20038;-88
2023/06/18 09:55:31;;;;;;;9.18;8.00;;;;;;;;;;10314802;28;20034;-86
2023/06/18 10:00:32;;;;;;;9.20;7.78;;;;;;;;;;10327633;28;20272;-88
2023/06/18 10:05:36;;;;;;;9.43;7.20;;;;;;;;;;10321429;28;20161;-88
2023/06/18 10:10:38;;;;;;;8.57;6.77;;;;;;;;;;10316763;28;20045;-91
2023/06/18 10:15:41;;;;;;;8.48;5.40;;;;;;;;;;10334694;28;20041;-88
2023/06/18 10:20:42;;;;;;;5.82;4.78;;;;;;;;;;10319604;28;20029;-89
2023/06/18 10:25:43;;;;;;;5.97;5.07;;;;;;;;;;10313992;28;20034;-89
2023/06/18 10:30:45;;;;;;;5.40;4.75;;;;;;;;;;10312963;28;20129;-91
2023/06/18 10:35:46;;;;;;;7.00;4.80;;;;;;;;;;10335553;28;20037;-88
2023/06/18 10:40:47;;;;;;;5.60;4.63;;;;;;;;;;10327956;28;20382;-90
2023/06/18 10:46:07;;;;;;;8.65;7.22;;;;;;;;;;10330998;28;20042;-90
2023/06/18 10:51:15;;;;;;;8.50;6.45;;;;;;;;;;10340827;28;20049;-88
2023/06/18 10:56:25;;;;;;;12.10;6.47;;;;;;;;;;10317309;28;20038;-88
2023/06/18 11:01:27;;;;;;;11.68;7.78;;;;;;;;;;10328865;28;20046;-88
2023/06/18 11:12:04;;;;;;;11.73;8.85;;;;;;;;;;10167640;23;20112;-86
2023/06/18 11:17:09;;;;;;;10.82;9.05;;;;;;;;;;10102887;29;20037;-89
2023/06/18 11:22:23;;;;;;;10.30;8.88;;;;;;;;;;10119457;29;20522;-91
2023/06/18 11:27:35;;;;;;;10.15;9.00;;;;;;;;;;10107785;29;20028;-89
2023/06/18 11:32:36;;;;;;;12.27;9.85;;;;;;;;;;10128027;29;20401;-88
2023/06/18 11:37:45;;;;;;;13.13;10.60;;;;;;;;;;10111774;29;20517;-88
2023/06/18 11:43:09;;;;;;;11.15;9.73;;;;;;;;;;10110530;29;20393;-89
2023/06/18 11:48:12;;;;;;;14.02;9.68;;;;;;;;;;10122301;29;20467;-89
2023/06/18 11:58:56;;;;;;;12.55;9.68;;;;;;;;;;10090492;29;20037;-87
2023/06/18 12:04:04;;;;;;;11.65;8.98;;;;;;;;;;10089351;29;20033;-85
2023/06/18 12:09:09;;;;;;;11.23;9.20;;;;;;;;;;10088719;29;20147;-88
2023/06/18 12:14:14;;;;;;;11.05;8.77;;;;;;;;;;10091026;29;20037;-90
2023/06/18 12:30:07;;;;;;;7.43;6.18;;;;;;;;;;10634333;23;20072;-91
2023/06/18 12:35:13;;;;;;;6.97;5.18;;;;;;;;;;10190417;29;20034;-92
2023/06/18 12:40:20;;;;;;;6.00;5.03;;;;;;;;;;10207308;29;20031;-92
2023/06/18 12:51:03;;;;;;;5.70;5.00;;;;;;;;;;10192902;29;20051;-90
2023/06/18 12:56:18;;;;;;;14.88;5.88;;;;;;;;;;10175477;29;20035;-92
2023/06/18 13:01:20;;;;;;;5.32;4.82;;;;;;;;;;10160522;29;20392;-92
2023/06/18 13:06:32;;;;;;;6.10;5.50;;;;;;;;;;10180732;29;20075;-92
2023/06/18 13:11:33;;;;;;;6.57;5.65;;;;;;;;;;10176507;29;20036;-92
2023/06/18 13:16:34;;;;;;;7.05;6.32;;;;;;;;;;10176729;29;20095;-92
2023/06/18 13:21:57;;;;;;;6.30;5.68;;;;;;;;;;10187626;29;20031;-91
2023/06/18 13:26:58;;;;;;;6.55;5.22;;;;;;;;;;10187153;29;20059;-91
2023/06/18 13:32:00;;;;;;;7.78;6.30;;;;;;;;;;10167888;29;20187;-92
2023/06/18 13:37:01;;;;;;;6.78;5.78;;;;;;;;;;10181684;29;20027;-91
2023/06/18 13:42:02;;;;;;;5.28;4.78;;;;;;;;;;10186854;29;20031;-92
2023/06/18 13:47:04;;;;;;;5.53;4.85;;;;;;;;;;10187054;29;20131;-88
2023/06/18 13:52:24;;;;;;;10.90;4.88;;;;;;;;;;10186815;29;20048;-90
2023/06/18 13:57:33;;;;;;;6.13;5.10;;;;;;;;;;10151309;29;20028;-91
2023/06/18 14:02:34;;;;;;;6.22;5.53;;;;;;;;;;10172522;29;20028;-89
2023/06/18 14:07:36;;;;;;;6.80;4.90;;;;;;;;;;10180191;29;20039;-89
2023/06/18 14:12:38;;;;;;;5.30;4.53;;;;;;;;;;10186766;29;20142;-89
2023/06/18 14:18:00;;;;;;;5.55;4.70;;;;;;;;;;10174516;29;20043;-91
2023/06/18 14:23:20;;;;;;;4.93;4.43;;;;;;;;;;10180522;29;20114;-89
2023/06/18 14:34:00;;;;;;;5.97;4.78;;;;;;;;;;10195743;29;20047;-89
2023/06/18 14:39:29;;;;;;;4.75;4.28;;;;;;;;;;10159251;29;20031;-92
2023/06/18 14:44:33;;;;;;;5.60;5.00;;;;;;;;;;10179389;29;20039;-90
2023/06/18 14:49:37;;;;;;;7.17;5.30;;;;;;;;;;10187983;29;20039;-90
2023/06/18 14:54:40;;;;;;;6.27;5.20;;;;;;;;;;10185890;29;20039;-90
2023/06/18 14:59:44;;;;;;;6.57;5.07;;;;;;;;;;10194838;29;20090;-90
2023/06/18 15:04:53;;;;;;;6.50;5.20;;;;;;;;;;10182863;29;20560;-91
2023/06/18 15:09:54;;;;;;;6.22;5.45;;;;;;;;;;10179984;29;20039;-90
2023/06/18 15:15:19;;;;;;;6.53;5.72;;;;;;;;;;10188894;29;20087;-91
2023/06/18 15:20:22;;;;;;;6.60;6.00;;;;;;;;;;10154531;29;20179;-91
2023/06/18 15:31:34;;;;;;;6.80;6.10;;;;;;;;;;10185555;29;20056;-91
2023/06/18 15:36:35;;;;;;;7.00;6.20;;;;;;;;;;10180831;29;20059;-89
2023/06/18 15:41:37;;;;;;;6.13;5.50;;;;;;;;;;10195011;29;20040;-91
2023/06/18 15:47:05;;;;;;;6.72;6.03;;;;;;;;;;10169876;29;20028;-91
2023/06/18 15:52:06;;;;;;;7.28;6.57;;;;;;;;;;10164680;29;20052;-91
2023/06/18 15:57:07;;;;;;;8.10;6.70;;;;;;;;;;10166740;29;20028;-91
2023/06/18 16:02:09;;;;;;;7.15;6.22;;;;;;;;;;10184874;29;20043;-93
2023/06/18 16:07:10;;;;;;;7.43;5.95;;;;;;;;;;10190276;29;20035;-91
2023/06/18 16:12:11;;;;;;;6.05;5.45;;;;;;;;;;10189352;29;20082;-91
2023/06/18 16:17:12;;;;;;;6.53;5.82;;;;;;;;;;10189078;29;20131;-91
2023/06/18 16:22:13;;;;;;;5.85;5.20;;;;;;;;;;10189327;29;20131;-91
2023/06/18 16:27:47;;;;;;;5.78;4.97;;;;;;;;;;10176699;29;20078;-91
2023/06/18 16:32:48;;;;;;;7.25;5.32;;;;;;;;;;10150805;29;20055;-91
2023/06/18 16:37:49;;;;;;;6.82;5.65;;;;;;;;;;10174633;29;20048;-91
2023/06/18 16:42:51;;;;;;;7.28;5.47;;;;;;;;;;10189180;29;20515;-90
2023/06/18 16:48:11;;;;;;;5.80;5.20;;;;;;;;;;10162877;29;20083;-91
2023/06/18 16:53:12;;;;;;;5.65;5.05;;;;;;;;;;10175668;29;20511;-92
2023/06/18 16:58:36;;;;;;;5.45;4.95;;;;;;;;;;10187108;29;20035;-91
2023/06/18 17:04:03;;;;;;;5.97;5.05;;;;;;;;;;10171907;29;20062;-91
2023/06/18 17:09:23;;;;;;;4.75;4.10;;;;;;;;;;10187331;29;20042;-92
2023/06/18 17:14:49;;;;;;;5.38;4.28;;;;;;;;;;10153177;29;20043;-92
2023/06/18 17:20:06;;;;;;;4.55;4.15;;;;;;;;;;10174270;29;20091;-91
2023/06/18 17:25:07;;;;;;;5.13;4.63;;;;;;;;;;10161616;29;20479;-91
2023/06/18 17:35:54;;;;;;;5.30;4.20;;;;;;;;;;10189744;29;20398;-90
2023/06/18 17:40:55;;;;;;;5.68;4.47;;;;;;;;;;10200665;29;20055;-91
2023/06/18 17:51:38;;;;;;;6.22;4.30;;;;;;;;;;10177642;28;20055;-91
2023/06/18 18:02:20;;;;;;;5.15;4.38;;;;;;;;;;10166657;29;20409;-91
2023/06/18 18:07:21;;;;;;;5.60;4.50;;;;;;;;;;10167616;29;20075;-91
2023/06/18 18:12:36;;;;;;;4.28;3.85;;;;;;;;;;10188160;29;20114;-90
2023/06/18 18:17:37;;;;;;;5.68;4.38;;;;;;;;;;10200492;29;20047;-91
2023/06/18 18:22:47;;;;;;;8.05;4.50;;;;;;;;;;10200984;29;20098;-91
2023/06/18 18:33:41;;;;;;;5.43;4.45;;;;;;;;;;10202220;29;20521;-90
2023/06/18 18:44:14;;;;;;;5.82;4.30;;;;;;;;;;10184791;29;20945;-91
2023/06/18 18:49:15;;;;;;;5.82;4.13;;;;;;;;;;10172584;29;20066;-92
2023/06/18 18:54:16;;;;;;;5.68;4.78;;;;;;;;;;10189700;29;20051;-93
2023/06/18 18:59:19;;;;;;;7.93;5.88;;;;;;;;;;10191316;29;20557;-92
2023/06/18 19:04:20;;;;;;;11.25;7.53;;;;;;;;;;10185401;29;20032;-90
2023/06/18 19:09:21;;;;;;;10.13;6.72;;;;;;;;;;10186332;29;20510;-90
2023/06/18 19:14:22;;;;;;;7.57;5.72;;;;;;;;;;10207027;29;20039;-91
2023/06/18 19:19:50;;;;;;;5.88;5.05;;;;;;;;;;10191037;29;20783;-90
2023/06/18 19:24:51;;;;;;;5.82;5.22;;;;;;;;;;10188657;29;20356;-91
2023/06/18 19:29:52;;;;;;;6.78;5.07;;;;;;;;;;10167607;29;20206;-91
2023/06/18 19:34:53;;;;;;;7.18;5.22;;;;;;;;;;10189734;29;20054;-91
2023/06/18 19:39:54;;;;;;;7.88;5.88;;;;;;;;;;10181292;29;20039;-91
2023/06/18 19:45:24;;;;;;;9.30;6.28;;;;;;;;;;10180494;29;20059;-91
2023/06/18 19:50:26;;;;;;;7.68;5.47;;;;;;;;;;10185462;29;20670;-90
2023/06/18 19:55:27;;;;;;;8.27;6.00;;;;;;;;;;10178154;29;20103;-90
2023/06/18 20:00:28;;;;;;;7.43;5.90;;;;;;;;;;10169839;29;20028;-92
2023/06/18 20:05:29;;;;;;;7.63;5.93;;;;;;;;;;10185743;29;20039;-90
2023/06/18 20:10:30;;;;;;;7.13;5.68;;;;;;;;;;10176139;29;20492;-91
2023/06/18 20:15:33;;;;;;;7.55;6.20;;;;;;;;;;10188403;29;20042;-91
2023/06/18 20:20:34;;;;;;;8.10;6.20;;;;;;;;;;10163696;29;20461;-91
2023/06/18 20:25:36;;;;;;;7.50;6.22;;;;;;;;;;10171671;29;20059;-90
2023/06/18 20:30:37;;;;;;;6.60;5.50;;;;;;;;;;10203359;29;20039;-91
2023/06/18 20:35:38;;;;;;;8.93;6.20;;;;;;;;;;10181964;29;20066;-91
2023/06/18 20:40:39;;;;;;;8.38;6.38;;;;;;;;;;10183956;29;20032;-91
2023/06/18 20:45:40;;;;;;;7.50;6.30;;;;;;;;;;10172559;29;20489;-92
2023/06/18 20:50:41;;;;;;;9.30;6.57;;;;;;;;;;10161586;29;20133;-91
2023/06/18 20:55:42;;;;;;;10.55;6.40;;;;;;;;;;10172689;29;20096;-91
2023/06/18 21:00:44;;;;;;;8.48;6.65;;;;;;;;;;10186640;29;20038;-92
2023/06/18 21:05:45;;;;;;;11.85;7.40;;;;;;;;;;10171894;29;20067;-90
2023/06/18 21:10:46;;;;;;;8.10;6.65;;;;;;;;;;10181688;29;20091;-91
2023/06/18 21:15:47;;;;;;;10.27;7.18;;;;;;;;;;10153310;29;20119;-90
2023/06/18 21:20:48;;;;;;;9.90;7.18;;;;;;;;;;10147957;29;20078;-91
2023/06/18 21:25:49;;;;;;;8.38;6.18;;;;;;;;;;10148664;29;20032;-91
2023/06/18 21:30:50;;;;;;;8.65;6.53;;;;;;;;;;10151440;29;20062;-91
2023/06/18 21:35:51;;;;;;;8.65;6.70;;;;;;;;;;10163288;29;20025;-92
2023/06/18 21:40:53;;;;;;;6.78;6.07;;;;;;;;;;10197101;29;20063;-90
2023/06/18 21:45:55;;;;;;;7.63;5.82;;;;;;;;;;10202123;29;20525;-91
2023/06/18 21:51:00;;;;;;;7.50;6.22;;;;;;;;;;10189839;29;20182;-91
2023/06/18 21:56:03;;;;;;;9.65;7.20;;;;;;;;;;10202369;29;20036;-91
2023/06/18 22:01:05;;;;;;;8.00;6.55;;;;;;;;;;10191631;29;20062;-91
2023/06/18 22:06:08;;;;;;;9.88;7.07;;;;;;;;;;10202142;29;20063;-92
2023/06/18 22:11:09;;;;;;;10.43;7.03;;;;;;;;;;10189701;29;20035;-91
2023/06/18 22:16:10;;;;;;;8.63;7.03;;;;;;;;;;10196528;29;20031;-91
2023/06/18 22:21:11;;;;;;;9.35;6.60;;;;;;;;;;10169824;29;20055;-90
2023/06/18 22:26:12;;;;;;;9.07;7.47;;;;;;;;;;10203388;29;20059;-91
2023/06/18 22:31:13;;;;;;;7.72;6.50;;;;;;;;;;10209727;29;20079;-91
2023/06/18 22:36:14;;;;;;;11.02;8.13;;;;;;;;;;10209802;29;20042;-92
2023/06/18 22:41:16;;;;;;;12.63;9.60;;;;;;;;;;10196998;29;20051;-92
2023/06/18 22:46:17;;;;;;;14.25;10.07;;;;;;;;;;10209273;29;20039;-91
2023/06/18 22:51:18;;;;;;;15.90;10.35;;;;;;;;;;10209030;29;20067;-91
2023/06/18 22:56:21;;;;;;;11.68;7.70;;;;;;;;;;10207389;29;20031;-91
2023/06/18 23:01:25;;;;;;;12.25;8.23;;;;;;;;;;10186493;29;20034;-92
2023/06/18 23:06:26;;;;;;;13.35;8.98;;;;;;;;;;10208630;29;20558;-89
2023/06/18 23:11:28;;;;;;;13.23;9.60;;;;;;;;;;10207617;29;20042;-91
2023/06/18 23:16:29;;;;;;;13.95;10.02;;;;;;;;;;10208276;29;20028;-91
2023/06/18 23:21:35;;;;;;;13.40;9.93;;;;;;;;;;10199285;29;20063;-91
2023/06/18 23:26:37;;;;;;;15.52;10.35;;;;;;;;;;10192442;29;20082;-91
2023/06/18 23:31:38;;;;;;;16.00;10.73;;;;;;;;;;10207724;29;20048;-90
2023/06/18 23:36:39;;;;;;;21.42;14.13;;;;;;;;;;10206969;29;20031;-90
2023/06/18 23:41:42;;;;;;;19.73;13.15;;;;;;;;;;10207258;29;20027;-91
2023/06/18 23:46:43;;;;;;;19.23;12.50;;;;;;;;;;10207187;29;20050;-91
2023/06/18 23:51:44;;;;;;;17.52;12.00;;;;;;;;;;10193739;29;20036;-90
2023/06/18 23:56:46;;;;;;;16.42;11.80;;;;;;;;;;10206577;29;20135;-90
